Udine-Campoformido Air Base

LIPD · Friuli Venezia Giulia, 意大利

罗盘
风向 的 风向 360° Udine-Campoformido Air Base 4/22
风: 2 kt, 1 beaufort

2 kt

1 kt
改变
0 2.000 4.000 6.000 8.000 10.000
BKN 6.000 ft
METAR LIPI 040555Z 36002KT 9999 BKN060 12/10 Q1021 RMK BKN VIS MIN 9999 WIND THR06 03002KT WIND THR24 01002KT BLU

METAR Udine-Campoformido Air Base - LIPD/UDN

Udine-Campoformido Air Base是Udine,意大利中的小机场。 该机场有一条跑道: 4/22. 该领域的国际民航组织标志是LIPD 它的国际航空运输协会代码是UDN.

这份报告是针对2022年10月4日 07:55, 当地时间在Rivolto Air Base进行的。

机场观察

风向为360°,速度为2 kt。

可见度为10 km 或者更多。

有碎云在6.000 ft的高度。 破损或更高的上限为6.000 ft。

温度和风寒是12 °C。 露点为10 °C,相对湿度为88%。 海平面上的气压为1021 hPa (QNH)。

白天

今天,太阳从07:09升起,在18:42降落。 这适用于Udine-Campoformido Air Base,世界夏令时可能有所不同。 当地时间与世界标准时间之间的时差为+2 小时。 夏令时目前正在进行中。

公司介绍

在这个机场,你可以找到飞行学校 和 跳伞中心。 这个机场上的公司有Aero Club Friulano 和 UPnGO Centro Paracadutismo F.v.g. - UDINE -。

体会

到Vliegles.nl去找飞行课程,跳伞和其他飞行体验。 浏览页面,了解Udine-Campoformido Air Base附近所有可用的活动。 你也可以使用搜索功能来寻找你所在地附近的特定飞行课程、跳伞或其他飞行体验。

跑道

Id 标题 侧风 逆风 侧风 %
4/22 040°-220° 1 kt 2 kt 64 %

逆风成分最大的方向会被突出显示,并用于横风计算。 这并不一定意味着这个方向在使用。

乌云

6.000 ft BKN 碎云

温度 & 天气

温度 12 °C
露点 10 °C
相对湿度 88%
Kp-index 3 (0-9)

评论

BKN VIS MIN 9999 WIND THR06 03002KT WIND THR24 01002KT

白天

日出
07:10
中午
12:56
日落
18:43 (10h 07m)

小工具

你想在你的网站上有一个关于Udine-Campoformido Air Base的当前航空天气(METAR)的小部件吗?

</> 显示HTML代码

我们和第三方通过cookies跟踪您在我们网站上的上网行为。如果您继续,我们认为您同意我们的cookie政策。 了解更多